sensor_id;sensor_type;location;lat;lon;timestamp;pressure;altitude;pressure_sealevel;temperature;humidity
49627;BME280;35527;54.616;39.786;2023-02-11T00:00:05;100095.34;;;-3.87;100.00
49627;BME280;35527;54.616;39.786;2023-02-11T00:03:08;100093.03;;;-4.14;100.00
49627;BME280;35527;54.616;39.786;2023-02-11T00:06:11;100070.41;;;-4.08;100.00
49627;BME280;35527;54.616;39.786;2023-02-11T00:09:16;100087.41;;;-4.02;100.00
49627;BME280;35527;54.616;39.786;2023-02-11T00:12:18;100094.41;;;-3.91;100.00
49627;BME280;35527;54.616;39.786;2023-02-11T00:15:24;100081.91;;;-3.86;100.00
49627;BME280;35527;54.616;39.786;2023-02-11T00:18:27;100055.31;;;-4.05;100.00
49627;BME280;35527;54.616;39.786;2023-02-11T00:21:32;100080.34;;;-3.79;100.00
49627;BME280;35527;54.616;39.786;2023-02-11T00:24:38;100100.66;;;-3.76;100.00
49627;BME280;35527;54.616;39.786;2023-02-11T00:27:44;100070.13;;;-3.84;100.00
49627;BME280;35527;54.616;39.786;2023-02-11T00:30:53;100094.19;;;-3.64;100.00
49627;BME280;35527;54.616;39.786;2023-02-11T00:33:58;100102.69;;;-3.62;100.00
49627;BME280;35527;54.616;39.786;2023-02-11T00:37:01;100079.72;;;-3.69;100.00
49627;BME280;35527;54.616;39.786;2023-02-11T00:40:05;100088.47;;;-3.93;100.00
49627;BME280;35527;54.616;39.786;2023-02-11T00:43:09;100116.94;;;-3.65;100.00
49627;BME280;35527;54.616;39.786;2023-02-11T00:46:14;100094.31;;;-3.59;100.00
49627;BME280;35527;54.616;39.786;2023-02-11T00:49:17;100098.44;;;-3.63;100.00
49627;BME280;35527;54.616;39.786;2023-02-11T00:52:23;100084.72;;;-3.72;100.00
49627;BME280;35527;54.616;39.786;2023-02-11T00:55:25;100098.25;;;-3.70;100.00
49627;BME280;35527;54.616;39.786;2023-02-11T00:58:35;100121.28;;;-3.59;100.00
49627;BME280;35527;54.616;39.786;2023-02-11T01:01:37;100087.97;;;-3.78;100.00
49627;BME280;35527;54.616;39.786;2023-02-11T01:04:43;100109.38;;;-3.64;100.00
49627;BME280;35527;54.616;39.786;2023-02-11T01:07:46;100116.09;;;-3.64;100.00
49627;BME280;35527;54.616;39.786;2023-02-11T01:11:00;100116.94;;;-3.65;100.00
49627;BME280;35527;54.616;39.786;2023-02-11T01:14:05;100104.00;;;-3.77;100.00
49627;BME280;35527;54.616;39.786;2023-02-11T01:17:08;100086.19;;;-3.82;100.00
49627;BME280;35527;54.616;39.786;2023-02-11T01:20:16;100100.53;;;-3.82;100.00
49627;BME280;35527;54.616;39.786;2023-02-11T01:23:22;100110.78;;;-3.76;100.00
49627;BME280;35527;54.616;39.786;2023-02-11T01:26:29;100092.81;;;-3.87;100.00
49627;BME280;35527;54.616;39.786;2023-02-11T01:29:33;100111.75;;;-3.71;100.00
49627;BME280;35527;54.616;39.786;2023-02-11T01:32:35;100121.94;;;-3.68;100.00
49627;BME280;35527;54.616;39.786;2023-02-11T01:35:45;100121.09;;;-3.67;100.00
49627;BME280;35527;54.616;39.786;2023-02-11T01:38:50;100065.56;;;-3.99;100.00
49627;BME280;35527;54.616;39.786;2023-02-11T01:41:54;100092.94;;;-3.82;100.00
49627;BME280;35527;54.616;39.786;2023-02-11T01:45:00;100085.16;;;-3.90;100.00
49627;BME280;35527;54.616;39.786;2023-02-11T01:48:10;100120.94;;;-3.73;100.00
49627;BME280;35527;54.616;39.786;2023-02-11T01:51:17;100119.13;;;-3.80;100.00
49627;BME280;35527;54.616;39.786;2023-02-11T01:54:23;100083.28;;;-3.99;100.00
49627;BME280;35527;54.616;39.786;2023-02-11T01:57:51;100115.63;;;-3.84;100.00
49627;BME280;35527;54.616;39.786;2023-02-11T02:01:00;100106.13;;;-3.94;100.00
49627;BME280;35527;54.616;39.786;2023-02-11T02:04:07;100066.00;;;-4.17;100.00
49627;BME280;35527;54.616;39.786;2023-02-11T02:07:18;100104.47;;;-3.92;100.00
49627;BME280;35527;54.616;39.786;2023-02-11T02:10:26;100112.94;;;-3.92;100.00
49627;BME280;35527;54.616;39.786;2023-02-11T02:13:33;100099.06;;;-4.08;100.00
49627;BME280;35527;54.616;39.786;2023-02-11T02:16:37;100115.34;;;-3.96;100.00
49627;BME280;35527;54.616;39.786;2023-02-11T02:33:30;100071.00;;;-4.18;100.00
49627;BME280;35527;54.616;39.786;2023-02-11T02:37:08;100114.84;;;-4.16;100.00
49627;BME280;35527;54.616;39.786;2023-02-11T02:40:16;100118.25;;;-4.16;100.00
49627;BME280;35527;54.616;39.786;2023-02-11T02:43:22;100118.38;;;-4.11;100.00
49627;BME280;35527;54.616;39.786;2023-02-11T02:46:27;100122.72;;;-4.04;100.00
49627;BME280;35527;54.616;39.786;2023-02-11T02:49:32;100112.53;;;-4.09;100.00
49627;BME280;35527;54.616;39.786;2023-02-11T02:52:57;100141.25;;;-4.05;100.00
49627;BME280;35527;54.616;39.786;2023-02-11T02:56:13;100112.19;;;-4.22;100.00
49627;BME280;35527;54.616;39.786;2023-02-11T02:59:47;100112.19;;;-4.22;100.00
49627;BME280;35527;54.616;39.786;2023-02-11T03:03:28;100119.00;;;-4.18;100.00
49627;BME280;35527;54.616;39.786;2023-02-11T03:10:11;100102.00;;;-4.25;100.00
49627;BME280;35527;54.616;39.786;2023-02-11T03:13:21;100104.53;;;-4.25;100.00
49627;BME280;35527;54.616;39.786;2023-02-11T03:16:27;100070.66;;;-4.65;100.00
49627;BME280;35527;54.616;39.786;2023-02-11T03:19:49;100085.81;;;-4.32;100.00
49627;BME280;35527;54.616;39.786;2023-02-11T03:22:57;100101.41;;;-4.15;100.00
49627;BME280;35527;54.616;39.786;2023-02-11T03:26:20;100092.31;;;-4.09;100.00
49627;BME280;35527;54.616;39.786;2023-02-11T03:32:40;100065.38;;;-4.07;100.00
49627;BME280;35527;54.616;39.786;2023-02-11T03:35:54;100091.69;;;-3.98;100.00
49627;BME280;35527;54.616;39.786;2023-02-11T03:39:02;100080.81;;;-3.96;100.00
49627;BME280;35527;54.616;39.786;2023-02-11T03:42:08;100074.69;;;-4.05;100.00
49627;BME280;35527;54.616;39.786;2023-02-11T03:45:12;100108.88;;;-3.85;100.00
49627;BME280;35527;54.616;39.786;2023-02-11T03:48:35;100070.50;;;-4.03;100.00
49627;BME280;35527;54.616;39.786;2023-02-11T03:51:40;100101.88;;;-3.95;100.00
49627;BME280;35527;54.616;39.786;2023-02-11T03:54:45;100071.41;;;-4.01;100.00
49627;BME280;35527;54.616;39.786;2023-02-11T03:57:52;100082.69;;;-3.87;100.00
49627;BME280;35527;54.616;39.786;2023-02-11T04:00:55;100099.47;;;-3.91;100.00
49627;BME280;35527;54.616;39.786;2023-02-11T04:04:01;100067.31;;;-3.96;100.00
49627;BME280;35527;54.616;39.786;2023-02-11T04:07:04;100083.53;;;-3.88;100.00
49627;BME280;35527;54.616;39.786;2023-02-11T04:10:07;100100.59;;;-3.78;100.00
49627;BME280;35527;54.616;39.786;2023-02-11T04:13:11;100104.88;;;-3.75;100.00
49627;BME280;35527;54.616;39.786;2023-02-11T04:16:16;100114.22;;;-3.73;100.00
49627;BME280;35527;54.616;39.786;2023-02-11T04:19:19;100081.91;;;-3.85;100.00
49627;BME280;35527;54.616;39.786;2023-02-11T04:22:22;100116.88;;;-3.68;100.00
49627;BME280;35527;54.616;39.786;2023-02-11T04:25:24;100101.41;;;-3.80;100.00
49627;BME280;35527;54.616;39.786;2023-02-11T04:28:29;100115.88;;;-3.75;100.00
49627;BME280;35527;54.616;39.786;2023-02-11T04:31:32;100083.34;;;-3.96;100.00
49627;BME280;35527;54.616;39.786;2023-02-11T04:34:38;100090.13;;;-3.95;100.00
49627;BME280;35527;54.616;39.786;2023-02-11T04:37:41;100106.22;;;-3.90;100.00
49627;BME280;35527;54.616;39.786;2023-02-11T04:40:50;100093.59;;;-3.90;100.00
49627;BME280;35527;54.616;39.786;2023-02-11T04:43:57;100115.94;;;-4.07;100.00
49627;BME280;35527;54.616;39.786;2023-02-11T04:47:07;100109.53;;;-3.92;100.00
49627;BME280;35527;54.616;39.786;2023-02-11T04:50:10;100103.75;;;-3.88;100.00
49627;BME280;35527;54.616;39.786;2023-02-11T04:53:18;100119.00;;;-3.85;100.00
49627;BME280;35527;54.616;39.786;2023-02-11T04:56:21;100099.41;;;-3.94;100.00
49627;BME280;35527;54.616;39.786;2023-02-11T04:59:27;100098.66;;;-3.90;100.00
49627;BME280;35527;54.616;39.786;2023-02-11T05:02:31;100113.50;;;-3.67;100.00
49627;BME280;35527;54.616;39.786;2023-02-11T05:05:39;100113.50;;;-3.67;100.00
49627;BME280;35527;54.616;39.786;2023-02-11T05:08:42;100129.00;;;-3.15;100.00
49627;BME280;35527;54.616;39.786;2023-02-11T05:11:51;100133.84;;;-2.41;100.00
49627;BME280;35527;54.616;39.786;2023-02-11T05:14:55;100107.41;;;-2.07;100.00
49627;BME280;35527;54.616;39.786;2023-02-11T05:18:01;100132.81;;;-1.51;99.94
49627;BME280;35527;54.616;39.786;2023-02-11T05:21:11;100096.00;;;-1.23;94.88
49627;BME280;35527;54.616;39.786;2023-02-11T05:24:15;100116.13;;;-0.68;90.44
49627;BME280;35527;54.616;39.786;2023-02-11T05:27:20;100129.47;;;-0.05;83.30
49627;BME280;35527;54.616;39.786;2023-02-11T05:30:25;100105.06;;;0.20;77.68
49627;BME280;35527;54.616;39.786;2023-02-11T05:33:28;100125.94;;;0.95;73.67
49627;BME280;35527;54.616;39.786;2023-02-11T05:36:33;100124.38;;;1.34;68.88
49627;BME280;35527;54.616;39.786;2023-02-11T05:39:36;100122.78;;;1.67;67.12
49627;BME280;35527;54.616;39.786;2023-02-11T05:42:41;100113.50;;;2.21;63.63
49627;BME280;35527;54.616;39.786;2023-02-11T05:45:43;100102.38;;;2.37;61.47
49627;BME280;35527;54.616;39.786;2023-02-11T05:48:47;100131.34;;;2.47;61.10
49627;BME280;35527;54.616;39.786;2023-02-11T05:51:49;100134.63;;;3.00;59.77
49627;BME280;35527;54.616;39.786;2023-02-11T05:54:55;100124.38;;;3.10;58.59
49627;BME280;35527;54.616;39.786;2023-02-11T05:57:59;100102.34;;;2.60;58.29
49627;BME280;35527;54.616;39.786;2023-02-11T06:01:01;100111.72;;;2.67;58.33
49627;BME280;35527;54.616;39.786;2023-02-11T06:04:04;100118.50;;;2.82;58.27
49627;BME280;35527;54.616;39.786;2023-02-11T06:07:09;100131.19;;;3.16;57.29
49627;BME280;35527;54.616;39.786;2023-02-11T06:10:12;100144.69;;;3.47;56.96
49627;BME280;35527;54.616;39.786;2023-02-11T06:13:39;100154.19;;;3.19;56.84
49627;BME280;35527;54.616;39.786;2023-02-11T06:16:42;100133.03;;;2.37;57.33
49627;BME280;35527;54.616;39.786;2023-02-11T06:19:45;100138.59;;;0.81;61.03
49627;BME280;35527;54.616;39.786;2023-02-11T06:22:50;100142.19;;;-0.05;66.07
49627;BME280;35527;54.616;39.786;2023-02-11T06:26:00;100070.06;;;-0.96;70.94
49627;BME280;35527;54.616;39.786;2023-02-11T06:29:05;100134.91;;;-0.55;73.04
49627;BME280;35527;54.616;39.786;2023-02-11T06:32:09;100141.09;;;-1.05;76.48
49627;BME280;35527;54.616;39.786;2023-02-11T06:35:37;100143.22;;;-1.32;81.30
49627;BME280;35527;54.616;39.786;2023-02-11T06:38:41;100116.41;;;-1.74;84.28
49627;BME280;35527;54.616;39.786;2023-02-11T06:41:43;100109.47;;;-1.85;86.90
49627;BME280;35527;54.616;39.786;2023-02-11T06:44:50;100140.41;;;-1.52;87.61
49627;BME280;35527;54.616;39.786;2023-02-11T06:47:54;100114.25;;;-1.48;87.85
49627;BME280;35527;54.616;39.786;2023-02-11T06:51:09;100132.34;;;-1.25;86.23
49627;BME280;35527;54.616;39.786;2023-02-11T06:54:13;100103.03;;;-1.63;87.16
49627;BME280;35527;54.616;39.786;2023-02-11T06:57:18;100084.34;;;-1.68;87.31
49627;BME280;35527;54.616;39.786;2023-02-11T07:00:22;100130.50;;;-1.37;88.08
49627;BME280;35527;54.616;39.786;2023-02-11T07:03:25;100133.84;;;-1.40;87.48
49627;BME280;35527;54.616;39.786;2023-02-11T07:06:29;100118.38;;;-1.55;88.59
49627;BME280;35527;54.616;39.786;2023-02-11T07:09:34;100132.63;;;-1.05;88.73
49627;BME280;35527;54.616;39.786;2023-02-11T07:12:40;100126.75;;;-0.24;85.21
49627;BME280;35527;54.616;39.786;2023-02-11T07:15:44;100128.22;;;0.51;74.79
49627;BME280;35527;54.616;39.786;2023-02-11T07:18:48;100138.66;;;-0.22;76.50
49627;BME280;35527;54.616;39.786;2023-02-11T07:21:57;100112.16;;;0.62;75.57
49627;BME280;35527;54.616;39.786;2023-02-11T07:25:01;100141.25;;;1.01;69.17
49627;BME280;35527;54.616;39.786;2023-02-11T07:28:03;100111.72;;;1.62;67.00
49627;BME280;35527;54.616;39.786;2023-02-11T07:34:20;100133.06;;;2.20;64.27
49627;BME280;35527;54.616;39.786;2023-02-11T07:37:22;100119.41;;;1.75;63.19
49627;BME280;35527;54.616;39.786;2023-02-11T07:40:25;100149.09;;;1.50;65.48
49627;BME280;35527;54.616;39.786;2023-02-11T07:43:30;100145.66;;;3.22;61.47
49627;BME280;35527;54.616;39.786;2023-02-11T07:46:40;100138.41;;;3.99;57.60
49627;BME280;35527;54.616;39.786;2023-02-11T07:49:46;100147.31;;;3.26;58.08
49627;BME280;35527;54.616;39.786;2023-02-11T07:53:14;100127.31;;;3.98;57.42
49627;BME280;35527;54.616;39.786;2023-02-11T07:56:18;100144.22;;;5.10;55.32
49627;BME280;35527;54.616;39.786;2023-02-11T07:59:25;100150.13;;;5.17;52.63
49627;BME280;35527;54.616;39.786;2023-02-11T08:02:29;100130.69;;;5.65;52.25
49627;BME280;35527;54.616;39.786;2023-02-11T08:05:32;100126.03;;;6.46;48.99
49627;BME280;35527;54.616;39.786;2023-02-11T08:08:36;100111.59;;;5.85;49.01
49627;BME280;35527;54.616;39.786;2023-02-11T08:11:40;100121.69;;;5.35;49.21
49627;BME280;35527;54.616;39.786;2023-02-11T08:14:43;100122.38;;;4.76;51.64
49627;BME280;35527;54.616;39.786;2023-02-11T08:17:46;100119.09;;;4.60;51.65
49627;BME280;35527;54.616;39.786;2023-02-11T08:20:50;100142.88;;;4.74;51.93
49627;BME280;35527;54.616;39.786;2023-02-11T08:23:57;100126.19;;;5.16;50.30
49627;BME280;35527;54.616;39.786;2023-02-11T08:27:00;100114.59;;;6.13;49.13
49627;BME280;35527;54.616;39.786;2023-02-11T08:30:07;100127.19;;;6.30;47.70
49627;BME280;35527;54.616;39.786;2023-02-11T08:33:11;100084.78;;;5.42;48.58
49627;BME280;35527;54.616;39.786;2023-02-11T08:36:18;100113.53;;;5.68;49.43
49627;BME280;35527;54.616;39.786;2023-02-11T08:39:21;100105.84;;;5.66;48.37
49627;BME280;35527;54.616;39.786;2023-02-11T08:42:25;100116.63;;;5.93;48.08
49627;BME280;35527;54.616;39.786;2023-02-11T08:45:29;100115.94;;;5.16;49.03
49627;BME280;35527;54.616;39.786;2023-02-11T08:48:33;100095.34;;;4.42;50.71
49627;BME280;35527;54.616;39.786;2023-02-11T08:51:39;100099.19;;;3.91;52.26
49627;BME280;35527;54.616;39.786;2023-02-11T08:54:42;100091.53;;;3.92;52.70
49627;BME280;35527;54.616;39.786;2023-02-11T08:57:46;100092.59;;;3.59;53.38
49627;BME280;35527;54.616;39.786;2023-02-11T09:00:56;100091.47;;;3.97;52.94
49627;BME280;35527;54.616;39.786;2023-02-11T09:03:59;100066.63;;;4.10;52.14
49627;BME280;35527;54.616;39.786;2023-02-11T09:07:03;100070.63;;;4.37;51.30
49627;BME280;35527;54.616;39.786;2023-02-11T09:10:06;100075.19;;;4.05;52.06
49627;BME280;35527;54.616;39.786;2023-02-11T09:13:14;100064.50;;;3.50;53.41
49627;BME280;35527;54.616;39.786;2023-02-11T09:16:24;100060.06;;;3.78;53.21
49627;BME280;35527;54.616;39.786;2023-02-11T09:19:29;100063.63;;;3.55;53.26
49627;BME280;35527;54.616;39.786;2023-02-11T09:22:31;100065.88;;;3.97;53.11
49627;BME280;35527;54.616;39.786;2023-02-11T09:25:40;100076.09;;;4.88;50.49
49627;BME280;35527;54.616;39.786;2023-02-11T09:28:44;100060.81;;;4.79;51.05
49627;BME280;35527;54.616;39.786;2023-02-11T09:31:49;100068.28;;;4.99;50.81
49627;BME280;35527;54.616;39.786;2023-02-11T09:35:18;100045.88;;;5.11;50.18
49627;BME280;35527;54.616;39.786;2023-02-11T09:38:24;100053.19;;;5.39;49.60
49627;BME280;35527;54.616;39.786;2023-02-11T09:44:43;100051.69;;;5.23;49.81
49627;BME280;35527;54.616;39.786;2023-02-11T09:48:01;100040.97;;;4.91;49.52
49627;BME280;35527;54.616;39.786;2023-02-11T09:57:57;100059.66;;;2.94;56.13
49627;BME280;35527;54.616;39.786;2023-02-11T10:01:26;100022.13;;;3.04;55.20
49627;BME280;35527;54.616;39.786;2023-02-11T10:04:48;100027.16;;;3.21;54.88
49627;BME280;35527;54.616;39.786;2023-02-11T10:11:51;100012.13;;;2.47;57.53
49627;BME280;35527;54.616;39.786;2023-02-11T10:15:23;99999.41;;;2.28;57.90
49627;BME280;35527;54.616;39.786;2023-02-11T10:22:27;100007.97;;;1.65;60.84
49627;BME280;35527;54.616;39.786;2023-02-11T10:25:37;99980.78;;;1.47;61.61
49627;BME280;35527;54.616;39.786;2023-02-11T10:28:47;99981.56;;;2.21;60.17
49627;BME280;35527;54.616;39.786;2023-02-11T10:31:52;99977.88;;;2.96;58.22
49627;BME280;35527;54.616;39.786;2023-02-11T10:35:02;99955.78;;;2.81;57.10
49627;BME280;35527;54.616;39.786;2023-02-11T10:38:09;99984.53;;;3.17;56.58
49627;BME280;35527;54.616;39.786;2023-02-11T10:41:17;99967.81;;;2.64;58.20
49627;BME280;35527;54.616;39.786;2023-02-11T10:44:46;99968.00;;;1.89;60.79
49627;BME280;35527;54.616;39.786;2023-02-11T10:47:56;99941.69;;;1.44;62.28
49627;BME280;35527;54.616;39.786;2023-02-11T10:51:14;99960.38;;;1.50;62.92
49627;BME280;35527;54.616;39.786;2023-02-11T10:54:17;99927.22;;;1.33;64.16
49627;BME280;35527;54.616;39.786;2023-02-11T10:57:37;99937.41;;;0.98;65.66
49627;BME280;35527;54.616;39.786;2023-02-11T11:00:51;99945.63;;;0.28;69.15
49627;BME280;35527;54.616;39.786;2023-02-11T11:03:56;99937.00;;;-0.02;71.69
49627;BME280;35527;54.616;39.786;2023-02-11T11:07:22;99913.81;;;-0.46;76.21
49627;BME280;35527;54.616;39.786;2023-02-11T11:14:17;99920.69;;;-0.36;79.08
49627;BME280;35527;54.616;39.786;2023-02-11T11:17:21;99924.22;;;-0.17;79.45
49627;BME280;35527;54.616;39.786;2023-02-11T11:20:29;99919.03;;;-0.29;79.69
49627;BME280;35527;54.616;39.786;2023-02-11T11:23:38;99914.75;;;-0.35;80.74
49627;BME280;35527;54.616;39.786;2023-02-11T11:26:55;99902.06;;;-0.29;80.99
49627;BME280;35527;54.616;39.786;2023-02-11T11:30:00;99919.78;;;-0.44;80.64
49627;BME280;35527;54.616;39.786;2023-02-11T11:33:20;99900.09;;;-0.70;82.46
49627;BME280;35527;54.616;39.786;2023-02-11T11:36:36;99908.47;;;-0.81;84.27
49627;BME280;35527;54.616;39.786;2023-02-11T11:43:18;99863.03;;;-1.44;88.33
49627;BME280;35527;54.616;39.786;2023-02-11T11:50:08;99867.81;;;-1.70;92.96
49627;BME280;35527;54.616;39.786;2023-02-11T11:56:27;99877.09;;;-1.72;95.47
49627;BME280;35527;54.616;39.786;2023-02-11T11:59:32;99864.25;;;-1.87;96.24
49627;BME280;35527;54.616;39.786;2023-02-11T12:10:26;99856.13;;;-1.57;93.07
49627;BME280;35527;54.616;39.786;2023-02-11T12:31:14;99826.25;;;-1.83;96.88
49627;BME280;35527;54.616;39.786;2023-02-11T12:55:25;99802.22;;;-2.12;99.45
49627;BME280;35527;54.616;39.786;2023-02-11T12:58:34;99810.66;;;-2.16;99.78
49627;BME280;35527;54.616;39.786;2023-02-11T13:01:49;99830.13;;;-2.14;100.00
49627;BME280;35527;54.616;39.786;2023-02-11T13:05:04;99810.44;;;-2.33;100.00
49627;BME280;35527;54.616;39.786;2023-02-11T13:08:30;99812.00;;;-2.43;100.00
49627;BME280;35527;54.616;39.786;2023-02-11T13:11:43;99818.00;;;-2.36;100.00
49627;BME280;35527;54.616;39.786;2023-02-11T13:14:59;99799.91;;;-2.61;100.00
49627;BME280;35527;54.616;39.786;2023-02-11T13:21:39;99815.44;;;-2.38;100.00
49627;BME280;35527;54.616;39.786;2023-02-11T13:31:54;99769.78;;;-2.42;100.00
49627;BME280;35527;54.616;39.786;2023-02-11T13:34:59;99768.09;;;-2.42;100.00
49627;BME280;35527;54.616;39.786;2023-02-11T13:38:23;99762.09;;;-2.48;100.00
49627;BME280;35527;54.616;39.786;2023-02-11T13:41:36;99762.06;;;-2.52;100.00
49627;BME280;35527;54.616;39.786;2023-02-11T13:44:45;99755.31;;;-2.51;100.00
49627;BME280;35527;54.616;39.786;2023-02-11T13:47:55;99743.41;;;-2.55;100.00
49627;BME280;35527;54.616;39.786;2023-02-11T13:51:04;99742.59;;;-2.54;100.00
49627;BME280;35527;54.616;39.786;2023-02-11T13:54:21;99701.16;;;-2.58;100.00
49627;BME280;35527;54.616;39.786;2023-02-11T13:57:32;99736.59;;;-2.61;100.00
49627;BME280;35527;54.616;39.786;2023-02-11T14:01:02;99701.78;;;-2.76;100.00
49627;BME280;35527;54.616;39.786;2023-02-11T14:04:19;99714.69;;;-2.60;100.00
49627;BME280;35527;54.616;39.786;2023-02-11T14:15:01;99710.31;;;-2.70;100.00
49627;BME280;35527;54.616;39.786;2023-02-11T14:25:21;99678.78;;;-2.92;100.00
49627;BME280;35527;54.616;39.786;2023-02-11T14:28:30;99685.34;;;-3.08;100.00
49627;BME280;35527;54.616;39.786;2023-02-11T14:31:44;99692.81;;;-3.16;100.00
49627;BME280;35527;54.616;39.786;2023-02-11T14:39:28;99670.88;;;-3.17;100.00
49627;BME280;35527;54.616;39.786;2023-02-11T14:42:37;99669.03;;;-3.27;100.00
49627;BME280;35527;54.616;39.786;2023-02-11T14:45:42;99668.16;;;-3.31;100.00
49627;BME280;35527;54.616;39.786;2023-02-11T14:48:49;99665.66;;;-3.28;100.00
49627;BME280;35527;54.616;39.786;2023-02-11T14:52:20;99637.75;;;-3.32;100.00
49627;BME280;35527;54.616;39.786;2023-02-11T14:55:33;99660.59;;;-3.26;100.00
49627;BME280;35527;54.616;39.786;2023-02-11T14:58:45;99636.06;;;-3.33;100.00
49627;BME280;35527;54.616;39.786;2023-02-11T15:01:52;99621.53;;;-3.48;100.00
49627;BME280;35527;54.616;39.786;2023-02-11T15:08:17;99610.66;;;-3.43;100.00
49627;BME280;35527;54.616;39.786;2023-02-11T15:11:23;99635.91;;;-3.44;100.00
49627;BME280;35527;54.616;39.786;2023-02-11T15:14:31;99620.81;;;-3.38;100.00
49627;BME280;35527;54.616;39.786;2023-02-11T15:17:38;99615.75;;;-3.38;100.00
49627;BME280;35527;54.616;39.786;2023-02-11T15:20:42;99633.41;;;-3.41;100.00
49627;BME280;35527;54.616;39.786;2023-02-11T15:24:01;99604.91;;;-3.31;100.00
49627;BME280;35527;54.616;39.786;2023-02-11T15:33:23;99577.84;;;-3.36;100.00
49627;BME280;35527;54.616;39.786;2023-02-11T15:36:27;99579.66;;;-3.25;100.00
49627;BME280;35527;54.616;39.786;2023-02-11T15:39:39;99571.19;;;-3.27;100.00
49627;BME280;35527;54.616;39.786;2023-02-11T15:43:03;99579.66;;;-3.25;100.00
49627;BME280;35527;54.616;39.786;2023-02-11T15:46:08;99568.69;;;-3.25;100.00
49627;BME280;35527;54.616;39.786;2023-02-11T15:49:14;99572.25;;;-3.11;100.00
49627;BME280;35527;54.616;39.786;2023-02-11T15:52:23;99562.09;;;-3.14;100.00
49627;BME280;35527;54.616;39.786;2023-02-11T15:55:28;99530.03;;;-3.13;100.00
49627;BME280;35527;54.616;39.786;2023-02-11T15:58:37;99548.72;;;-3.02;100.00
49627;BME280;35527;54.616;39.786;2023-02-11T16:01:47;99526.53;;;-3.25;100.00
49627;BME280;35527;54.616;39.786;2023-02-11T16:04:59;99536.94;;;-2.99;100.00
49627;BME280;35527;54.616;39.786;2023-02-11T16:08:19;99518.25;;;-3.11;100.00
49627;BME280;35527;54.616;39.786;2023-02-11T16:11:34;99480.22;;;-3.18;100.00
49627;BME280;35527;54.616;39.786;2023-02-11T16:14:40;99544.50;;;-3.03;100.00
49627;BME280;35527;54.616;39.786;2023-02-11T16:17:43;99511.56;;;-3.05;100.00
49627;BME280;35527;54.616;39.786;2023-02-11T16:20:48;99525.09;;;-3.03;100.00
49627;BME280;35527;54.616;39.786;2023-02-11T16:23:54;99468.47;;;-3.09;100.00
49627;BME280;35527;54.616;39.786;2023-02-11T16:27:00;99506.59;;;-2.96;100.00
49627;BME280;35527;54.616;39.786;2023-02-11T16:30:04;99499.75;;;-3.04;100.00
49627;BME280;35527;54.616;39.786;2023-02-11T16:33:10;99506.56;;;-2.99;100.00
49627;BME280;35527;54.616;39.786;2023-02-11T16:36:16;99473.72;;;-2.92;100.00
49627;BME280;35527;54.616;39.786;2023-02-11T16:39:21;99501.56;;;-2.92;100.00
49627;BME280;35527;54.616;39.786;2023-02-11T16:42:26;99479.50;;;-3.04;100.00
49627;BME280;35527;54.616;39.786;2023-02-11T16:45:30;99500.88;;;-2.79;100.00
49627;BME280;35527;54.616;39.786;2023-02-11T16:48:33;99484.84;;;-2.77;100.00
49627;BME280;35527;54.616;39.786;2023-02-11T16:51:38;99467.84;;;-2.90;100.00
49627;BME280;35527;54.616;39.786;2023-02-11T16:54:47;99429.84;;;-2.93;100.00
49627;BME280;35527;54.616;39.786;2023-02-11T16:58:16;99492.44;;;-2.75;100.00
49627;BME280;35527;54.616;39.786;2023-02-11T17:01:20;99481.56;;;-2.68;100.00
49627;BME280;35527;54.616;39.786;2023-02-11T17:04:25;99477.28;;;-2.74;100.00
49627;BME280;35527;54.616;39.786;2023-02-11T17:07:29;99451.06;;;-2.79;100.00
49627;BME280;35527;54.616;39.786;2023-02-11T17:10:33;99457.88;;;-2.75;100.00
49627;BME280;35527;54.616;39.786;2023-02-11T17:13:36;99471.41;;;-2.69;100.00
49627;BME280;35527;54.616;39.786;2023-02-11T17:16:41;99422.47;;;-2.64;100.00
49627;BME280;35527;54.616;39.786;2023-02-11T17:19:45;99416.50;;;-2.74;100.00
49627;BME280;35527;54.616;39.786;2023-02-11T17:22:50;99414.13;;;-2.54;100.00
49627;BME280;35527;54.616;39.786;2023-02-11T17:25:55;99428.44;;;-2.59;100.00
49627;BME280;35527;54.616;39.786;2023-02-11T17:29:00;99411.59;;;-2.54;100.00
49627;BME280;35527;54.616;39.786;2023-02-11T17:32:04;99406.47;;;-2.58;100.00
49627;BME280;35527;54.616;39.786;2023-02-11T17:35:08;99404.06;;;-2.46;100.00
49627;BME280;35527;54.616;39.786;2023-02-11T17:38:12;99365.91;;;-2.66;100.00
49627;BME280;35527;54.616;39.786;2023-02-11T17:41:15;99376.09;;;-2.55;100.00
49627;BME280;35527;54.616;39.786;2023-02-11T17:44:22;99392.94;;;-2.63;100.00
49627;BME280;35527;54.616;39.786;2023-02-11T17:47:25;99368.47;;;-2.58;100.00
49627;BME280;35527;54.616;39.786;2023-02-11T17:50:34;99327.81;;;-2.81;100.00
49627;BME280;35527;54.616;39.786;2023-02-11T17:53:37;99349.00;;;-2.67;100.00
49627;BME280;35527;54.616;39.786;2023-02-11T17:56:41;99360.88;;;-2.60;100.00
49627;BME280;35527;54.616;39.786;2023-02-11T17:59:49;99334.66;;;-2.68;100.00
49627;BME280;35527;54.616;39.786;2023-02-11T18:02:54;99294.06;;;-2.82;100.00
49627;BME280;35527;54.616;39.786;2023-02-11T18:06:00;99298.25;;;-2.85;100.00
49627;BME280;35527;54.616;39.786;2023-02-11T18:09:04;99313.59;;;-2.58;100.00
49627;BME280;35527;54.616;39.786;2023-02-11T18:12:08;99330.56;;;-2.44;100.00
49627;BME280;35527;54.616;39.786;2023-02-11T18:15:13;99273.91;;;-2.59;100.00
49627;BME280;35527;54.616;39.786;2023-02-11T18:18:15;99295.06;;;-2.49;100.00
49627;BME280;35527;54.616;39.786;2023-02-11T18:21:20;99295.94;;;-2.47;100.00
49627;BME280;35527;54.616;39.786;2023-02-11T18:24:24;99323.81;;;-2.41;100.00
49627;BME280;35527;54.616;39.786;2023-02-11T18:27:27;99295.97;;;-2.39;100.00
49627;BME280;35527;54.616;39.786;2023-02-11T18:30:57;99290.06;;;-2.41;100.00